sensor_id;sensor_type;location;lat;lon;timestamp;pressure;altitude;pressure_sealevel;temperature;humidity
10079;BME280;5078;42.544;22.966;2024-02-14T00:00:03;93647.13;;;5.74;69.42
10079;BME280;5078;42.544;22.966;2024-02-14T00:02:29;93650.25;;;5.34;70.16
10079;BME280;5078;42.544;22.966;2024-02-14T00:04:57;93659.31;;;5.42;70.28
10079;BME280;5078;42.544;22.966;2024-02-14T00:07:25;93658.84;;;5.50;69.98
10079;BME280;5078;42.544;22.966;2024-02-14T00:09:52;93653.69;;;5.50;69.33
10079;BME280;5078;42.544;22.966;2024-02-14T00:12:18;93659.78;;;5.33;70.20
10079;BME280;5078;42.544;22.966;2024-02-14T00:14:45;93672.44;;;5.45;70.11
10079;BME280;5078;42.544;22.966;2024-02-14T00:17:12;93670.19;;;5.54;69.05
10079;BME280;5078;42.544;22.966;2024-02-14T00:19:39;93666.84;;;5.53;69.39
10079;BME280;5078;42.544;22.966;2024-02-14T00:22:07;93670.78;;;5.29;70.62
10079;BME280;5078;42.544;22.966;2024-02-14T00:24:34;93670.03;;;5.33;70.68
10079;BME280;5078;42.544;22.966;2024-02-14T00:27:01;93672.72;;;5.49;70.43
10079;BME280;5078;42.544;22.966;2024-02-14T00:29:28;93677.03;;;5.38;70.32
10079;BME280;5078;42.544;22.966;2024-02-14T00:31:55;93678.06;;;5.42;69.96
10079;BME280;5078;42.544;22.966;2024-02-14T00:34:22;93678.34;;;5.46;70.52
10079;BME280;5078;42.544;22.966;2024-02-14T00:36:49;93684.06;;;5.53;69.64
10079;BME280;5078;42.544;22.966;2024-02-14T00:39:17;93684.50;;;5.45;70.45
10079;BME280;5078;42.544;22.966;2024-02-14T00:41:46;93682.13;;;5.33;71.20
10079;BME280;5078;42.544;22.966;2024-02-14T00:44:13;93683.13;;;5.27;71.23
10079;BME280;5078;42.544;22.966;2024-02-14T00:46:42;93682.44;;;5.42;70.90
10079;BME280;5078;42.544;22.966;2024-02-14T00:49:09;93677.81;;;5.38;70.88
10079;BME280;5078;42.544;22.966;2024-02-14T00:51:36;93680.94;;;5.51;70.54
10079;BME280;5078;42.544;22.966;2024-02-14T00:54:02;93676.06;;;5.49;70.14
10079;BME280;5078;42.544;22.966;2024-02-14T00:56:30;93675.28;;;5.49;70.14
10079;BME280;5078;42.544;22.966;2024-02-14T00:58:57;93678.75;;;5.27;70.92
10079;BME280;5078;42.544;22.966;2024-02-14T01:01:24;93672.84;;;5.27;70.87
10079;BME280;5078;42.544;22.966;2024-02-14T01:03:51;93679.28;;;5.29;71.01
10079;BME280;5078;42.544;22.966;2024-02-14T01:06:17;93681.69;;;5.46;70.03
10079;BME280;5078;42.544;22.966;2024-02-14T01:08:45;93675.28;;;5.49;69.33
10079;BME280;5078;42.544;22.966;2024-02-14T01:11:12;93678.09;;;5.47;69.65
10079;BME280;5078;42.544;22.966;2024-02-14T01:13:40;93664.44;;;5.42;69.07
10079;BME280;5078;42.544;22.966;2024-02-14T01:16:07;93679.09;;;5.41;68.87
10079;BME280;5078;42.544;22.966;2024-02-14T01:18:34;93691.22;;;5.46;69.79
10079;BME280;5078;42.544;22.966;2024-02-14T01:21:02;93682.41;;;5.36;69.91
10079;BME280;5078;42.544;22.966;2024-02-14T01:23:29;93677.91;;;5.17;70.38
10079;BME280;5078;42.544;22.966;2024-02-14T01:25:55;93677.94;;;5.22;70.36
10079;BME280;5078;42.544;22.966;2024-02-14T01:28:22;93683.34;;;5.25;70.83
10079;BME280;5078;42.544;22.966;2024-02-14T01:30:50;93671.97;;;5.11;70.74
10079;BME280;5078;42.544;22.966;2024-02-14T01:33:17;93684.47;;;5.03;71.56
10079;BME280;5078;42.544;22.966;2024-02-14T01:35:43;93681.66;;;5.04;71.37
10079;BME280;5078;42.544;22.966;2024-02-14T01:38:10;93680.97;;;5.14;71.38
10079;BME280;5078;42.544;22.966;2024-02-14T01:40:38;93679.72;;;5.16;71.34
10079;BME280;5078;42.544;22.966;2024-02-14T01:43:04;93684.69;;;4.96;71.37
10079;BME280;5078;42.544;22.966;2024-02-14T01:45:31;93681.81;;;4.87;72.51
10079;BME280;5078;42.544;22.966;2024-02-14T01:48:00;93680.81;;;4.94;71.62
10079;BME280;5078;42.544;22.966;2024-02-14T01:50:27;93685.81;;;5.10;71.21
10079;BME280;5078;42.544;22.966;2024-02-14T01:52:56;93680.13;;;5.03;71.75
10079;BME280;5078;42.544;22.966;2024-02-14T01:55:24;93686.16;;;5.19;70.81
10079;BME280;5078;42.544;22.966;2024-02-14T01:57:52;93677.63;;;5.13;70.74
10079;BME280;5078;42.544;22.966;2024-02-14T02:00:19;93679.66;;;5.11;70.89
10079;BME280;5078;42.544;22.966;2024-02-14T02:02:47;93680.31;;;5.33;69.65
10079;BME280;5078;42.544;22.966;2024-02-14T02:05:15;93679.88;;;5.05;70.61
10079;BME280;5078;42.544;22.966;2024-02-14T02:07:42;93684.41;;;5.29;69.43
10079;BME280;5078;42.544;22.966;2024-02-14T02:10:10;93689.56;;;5.29;69.35
10079;BME280;5078;42.544;22.966;2024-02-14T02:12:36;93685.22;;;5.35;68.90
10079;BME280;5078;42.544;22.966;2024-02-14T02:15:05;93688.59;;;5.40;68.06
10079;BME280;5078;42.544;22.966;2024-02-14T02:17:32;93686.25;;;5.34;68.02
10079;BME280;5078;42.544;22.966;2024-02-14T02:19:59;93694.00;;;5.39;68.27
10079;BME280;5078;42.544;22.966;2024-02-14T02:22:27;93692.22;;;5.45;67.92
10079;BME280;5078;42.544;22.966;2024-02-14T02:24:58;93695.56;;;5.45;67.73
10079;BME280;5078;42.544;22.966;2024-02-14T02:27:25;93697.41;;;5.50;67.69
10079;BME280;5078;42.544;22.966;2024-02-14T02:29:52;93696.13;;;5.52;68.94
10079;BME280;5078;42.544;22.966;2024-02-14T02:32:19;93701.78;;;5.49;67.78
10079;BME280;5078;42.544;22.966;2024-02-14T02:34:45;93702.44;;;5.34;68.74
10079;BME280;5078;42.544;22.966;2024-02-14T02:37:12;93700.44;;;5.42;68.15
10079;BME280;5078;42.544;22.966;2024-02-14T02:39:39;93699.34;;;5.32;69.02
10079;BME280;5078;42.544;22.966;2024-02-14T02:42:07;93691.91;;;5.36;69.04
10079;BME280;5078;42.544;22.966;2024-02-14T02:44:38;93687.47;;;5.26;68.25
10079;BME280;5078;42.544;22.966;2024-02-14T02:47:05;93697.03;;;5.31;68.21
10079;BME280;5078;42.544;22.966;2024-02-14T02:49:31;93699.31;;;5.27;67.73
10079;BME280;5078;42.544;22.966;2024-02-14T02:51:58;93696.19;;;5.20;67.92
10079;BME280;5078;42.544;22.966;2024-02-14T02:54:25;93699.28;;;5.22;67.67
10079;BME280;5078;42.544;22.966;2024-02-14T02:56:51;93697.97;;;5.20;68.07
10079;BME280;5078;42.544;22.966;2024-02-14T02:59:19;93701.28;;;5.15;68.50
10079;BME280;5078;42.544;22.966;2024-02-14T03:01:47;93701.34;;;5.25;68.04
10079;BME280;5078;42.544;22.966;2024-02-14T03:04:14;93699.28;;;5.22;67.77
10079;BME280;5078;42.544;22.966;2024-02-14T03:06:41;93703.13;;;5.20;67.90
10079;BME280;5078;42.544;22.966;2024-02-14T03:09:09;93696.69;;;5.17;67.36
10079;BME280;5078;42.544;22.966;2024-02-14T03:11:37;93704.84;;;5.09;68.07
10079;BME280;5078;42.544;22.966;2024-02-14T03:14:04;93701.78;;;5.12;67.75
10079;BME280;5078;42.544;22.966;2024-02-14T03:16:32;93711.50;;;5.10;68.04
10079;BME280;5078;42.544;22.966;2024-02-14T03:18:59;93710.75;;;5.10;68.07
10079;BME280;5078;42.544;22.966;2024-02-14T03:21:26;93705.03;;;5.03;68.08
10079;BME280;5078;42.544;22.966;2024-02-14T03:23:52;93713.00;;;5.01;67.96
10079;BME280;5078;42.544;22.966;2024-02-14T03:26:20;93708.63;;;5.02;67.74
10079;BME280;5078;42.544;22.966;2024-02-14T03:28:46;93717.56;;;4.94;67.88
10079;BME280;5078;42.544;22.966;2024-02-14T03:31:14;93719.84;;;4.90;67.95
10079;BME280;5078;42.544;22.966;2024-02-14T03:33:42;93713.97;;;4.95;68.18
10079;BME280;5078;42.544;22.966;2024-02-14T03:36:09;93723.19;;;4.91;67.81
10079;BME280;5078;42.544;22.966;2024-02-14T03:38:36;93716.72;;;4.83;67.60
10079;BME280;5078;42.544;22.966;2024-02-14T03:41:05;93729.53;;;4.83;68.70
10079;BME280;5078;42.544;22.966;2024-02-14T03:43:31;93726.00;;;4.89;68.00
10079;BME280;5078;42.544;22.966;2024-02-14T03:45:58;93729.53;;;4.83;68.79
10079;BME280;5078;42.544;22.966;2024-02-14T03:48:25;93732.91;;;4.89;68.16
10079;BME280;5078;42.544;22.966;2024-02-14T03:50:53;93733.19;;;4.87;67.93
10079;BME280;5078;42.544;22.966;2024-02-14T03:53:19;93743.81;;;4.74;68.95
10079;BME280;5078;42.544;22.966;2024-02-14T03:55:46;93743.34;;;4.77;68.94
10079;BME280;5078;42.544;22.966;2024-02-14T03:58:14;93742.56;;;4.77;68.55
10079;BME280;5078;42.544;22.966;2024-02-14T04:00:42;93744.94;;;4.83;68.58
10079;BME280;5078;42.544;22.966;2024-02-14T04:03:11;93735.75;;;4.87;68.32
10079;BME280;5078;42.544;22.966;2024-02-14T04:05:38;93746.66;;;4.73;68.51
10079;BME280;5078;42.544;22.966;2024-02-14T04:08:06;93747.69;;;4.77;68.35
10079;BME280;5078;42.544;22.966;2024-02-14T04:10:35;93752.69;;;4.88;69.12
10079;BME280;5078;42.544;22.966;2024-02-14T04:13:03;93755.84;;;4.96;69.24
10079;BME280;5078;42.544;22.966;2024-02-14T04:15:29;93759.97;;;4.97;68.59
10079;BME280;5078;42.544;22.966;2024-02-14T04:17:56;93760.25;;;5.00;68.49
10079;BME280;5078;42.544;22.966;2024-02-14T04:20:23;93758.69;;;4.99;68.58
10079;BME280;5078;42.544;22.966;2024-02-14T04:22:50;93768.66;;;4.96;68.86
10079;BME280;5078;42.544;22.966;2024-02-14T04:25:18;93778.50;;;5.04;68.21
10079;BME280;5078;42.544;22.966;2024-02-14T04:27:45;93765.34;;;4.95;67.89
10079;BME280;5078;42.544;22.966;2024-02-14T04:30:12;93781.22;;;4.92;68.86
10079;BME280;5078;42.544;22.966;2024-02-14T04:32:38;93780.56;;;5.02;68.26
10079;BME280;5078;42.544;22.966;2024-02-14T04:35:06;93779.22;;;4.94;68.46
10079;BME280;5078;42.544;22.966;2024-02-14T04:37:34;93778.03;;;5.07;68.18
10079;BME280;5078;42.544;22.966;2024-02-14T04:40:01;93780.56;;;5.02;68.40
10079;BME280;5078;42.544;22.966;2024-02-14T04:42:31;93783.50;;;4.88;68.99
10079;BME280;5078;42.544;22.966;2024-02-14T04:44:58;93782.09;;;5.03;68.26
10079;BME280;5078;42.544;22.966;2024-02-14T04:47:25;93767.31;;;4.88;68.08
10079;BME280;5078;42.544;22.966;2024-02-14T04:49:51;93781.56;;;5.01;67.84
10079;BME280;5078;42.544;22.966;2024-02-14T04:52:18;93790.81;;;4.75;69.21
10079;BME280;5078;42.544;22.966;2024-02-14T04:54:45;93792.97;;;4.83;68.47
10079;BME280;5078;42.544;22.966;2024-02-14T04:57:11;93797.94;;;4.68;69.25
10079;BME280;5078;42.544;22.966;2024-02-14T04:59:40;93807.63;;;4.61;68.63
10079;BME280;5078;42.544;22.966;2024-02-14T05:02:06;93817.31;;;4.54;69.51
10079;BME280;5078;42.544;22.966;2024-02-14T05:04:33;93815.44;;;4.49;68.81
10079;BME280;5078;42.544;22.966;2024-02-14T05:07:03;93821.34;;;4.71;67.93
10079;BME280;5078;42.544;22.966;2024-02-14T05:09:30;93821.00;;;4.63;67.77
10079;BME280;5078;42.544;22.966;2024-02-14T05:11:56;93818.88;;;4.81;67.45
10079;BME280;5078;42.544;22.966;2024-02-14T05:14:23;93828.81;;;4.73;67.68
10079;BME280;5078;42.544;22.966;2024-02-14T05:16:51;93831.00;;;4.86;67.08
10079;BME280;5078;42.544;22.966;2024-02-14T05:19:18;93840.31;;;4.92;66.79
10079;BME280;5078;42.544;22.966;2024-02-14T05:21:47;93839.63;;;4.53;66.97
10079;BME280;5078;42.544;22.966;2024-02-14T05:24:13;93826.78;;;4.31;67.25
10079;BME280;5078;42.544;22.966;2024-02-14T05:26:40;93841.72;;;4.34;68.30
10079;BME280;5078;42.544;22.966;2024-02-14T05:29:07;93859.75;;;4.39;69.36
10079;BME280;5078;42.544;22.966;2024-02-14T05:31:43;93862.19;;;4.51;67.64
10079;BME280;5078;42.544;22.966;2024-02-14T05:34:11;93853.66;;;4.46;67.72
10079;BME280;5078;42.544;22.966;2024-02-14T05:36:38;93875.16;;;4.39;67.90
10079;BME280;5078;42.544;22.966;2024-02-14T05:39:03;93868.56;;;4.27;69.07
10079;BME280;5078;42.544;22.966;2024-02-14T05:41:31;93871.59;;;4.07;69.74
10079;BME280;5078;42.544;22.966;2024-02-14T05:43:58;93882.72;;;4.13;69.02
10079;BME280;5078;42.544;22.966;2024-02-14T05:46:25;93888.28;;;4.26;68.28
10079;BME280;5078;42.544;22.966;2024-02-14T05:48:52;93895.38;;;4.36;67.81
10079;BME280;5078;42.544;22.966;2024-02-14T05:51:22;93904.38;;;4.38;67.10
10079;BME280;5078;42.544;22.966;2024-02-14T05:53:49;93896.59;;;4.33;66.98
10079;BME280;5078;42.544;22.966;2024-02-14T05:56:16;93904.00;;;4.30;67.49
10079;BME280;5078;42.544;22.966;2024-02-14T05:58:42;93905.03;;;4.12;67.76
10079;BME280;5078;42.544;22.966;2024-02-14T06:01:09;93899.88;;;4.29;67.31
10079;BME280;5078;42.544;22.966;2024-02-14T06:03:36;93901.25;;;4.36;66.98
10079;BME280;5078;42.544;22.966;2024-02-14T06:06:03;93906.47;;;4.41;66.28
10079;BME280;5078;42.544;22.966;2024-02-14T06:08:31;93901.69;;;4.12;67.24
10079;BME280;5078;42.544;22.966;2024-02-14T06:10:57;93902.69;;;4.27;66.52
10079;BME280;5078;42.544;22.966;2024-02-14T06:13:24;93900.03;;;4.39;65.94
10079;BME280;5078;42.544;22.966;2024-02-14T06:15:50;93903.63;;;4.21;66.74
10079;BME280;5078;42.544;22.966;2024-02-14T06:18:17;93893.00;;;4.13;66.51
10079;BME280;5078;42.544;22.966;2024-02-14T06:20:44;93907.72;;;4.39;66.70
10079;BME280;5078;42.544;22.966;2024-02-14T06:23:12;93910.81;;;4.41;66.17
10079;BME280;5078;42.544;22.966;2024-02-14T06:25:40;93916.09;;;4.51;65.34
10079;BME280;5078;42.544;22.966;2024-02-14T06:28:06;93929.50;;;4.36;66.49
10079;BME280;5078;42.544;22.966;2024-02-14T06:30:34;93922.56;;;4.37;65.66
10079;BME280;5078;42.544;22.966;2024-02-14T06:33:01;93921.56;;;4.38;65.93
10079;BME280;5078;42.544;22.966;2024-02-14T06:35:27;93932.59;;;4.38;66.21
10079;BME280;5078;42.544;22.966;2024-02-14T06:37:54;93935.44;;;4.20;67.73
10079;BME280;5078;42.544;22.966;2024-02-14T06:40:21;93814.41;;;3.35;66.38
10079;BME280;5078;42.544;22.966;2024-02-14T06:42:49;93932.78;;;4.32;66.47
10079;BME280;5078;42.544;22.966;2024-02-14T06:45:17;93933.13;;;4.40;65.71
10079;BME280;5078;42.544;22.966;2024-02-14T06:47:43;93946.44;;;4.37;66.65
10079;BME280;5078;42.544;22.966;2024-02-14T06:50:10;93950.00;;;4.53;65.13
10079;BME280;5078;42.544;22.966;2024-02-14T06:52:37;93947.97;;;4.55;65.62
10079;BME280;5078;42.544;22.966;2024-02-14T06:55:04;93950.19;;;4.47;65.19
10079;BME280;5078;42.544;22.966;2024-02-14T06:57:30;93964.72;;;4.41;65.39
10079;BME280;5078;42.544;22.966;2024-02-14T06:59:58;93965.03;;;4.45;65.56
10079;BME280;5078;42.544;22.966;2024-02-14T07:02:25;93960.69;;;4.28;66.32
10079;BME280;5078;42.544;22.966;2024-02-14T07:04:53;93959.44;;;4.14;65.50
10079;BME280;5078;42.544;22.966;2024-02-14T07:07:20;93970.41;;;4.43;65.50
10079;BME280;5078;42.544;22.966;2024-02-14T07:09:46;93972.81;;;4.50;64.82
10079;BME280;5078;42.544;22.966;2024-02-14T07:12:13;93983.59;;;4.68;64.46
10079;BME280;5078;42.544;22.966;2024-02-14T07:14:39;93981.81;;;4.52;65.64
10079;BME280;5078;42.544;22.966;2024-02-14T07:17:08;93986.78;;;4.59;65.25
10079;BME280;5078;42.544;22.966;2024-02-14T07:19:34;93984.72;;;4.39;65.69
10079;BME280;5078;42.544;22.966;2024-02-14T07:22:01;93979.38;;;4.62;64.41
10079;BME280;5078;42.544;22.966;2024-02-14T07:24:28;93992.41;;;4.39;65.49
10079;BME280;5078;42.544;22.966;2024-02-14T07:26:54;93986.94;;;4.52;65.55
10079;BME280;5078;42.544;22.966;2024-02-14T07:29:22;93995.84;;;4.83;65.11
10079;BME280;5078;42.544;22.966;2024-02-14T07:31:48;93994.94;;;4.72;65.36
10079;BME280;5078;42.544;22.966;2024-02-14T07:34:16;94005.44;;;4.87;64.08
10079;BME280;5078;42.544;22.966;2024-02-14T07:36:43;94005.97;;;5.11;63.53
10079;BME280;5078;42.544;22.966;2024-02-14T07:39:11;94008.06;;;5.14;63.66
10079;BME280;5078;42.544;22.966;2024-02-14T07:41:38;94006.56;;;5.18;62.36
10079;BME280;5078;42.544;22.966;2024-02-14T07:44:05;94013.50;;;5.18;62.67
10079;BME280;5078;42.544;22.966;2024-02-14T07:46:31;94012.78;;;5.01;63.16
10079;BME280;5078;42.544;22.966;2024-02-14T07:48:58;94014.16;;;5.08;62.55
10079;BME280;5078;42.544;22.966;2024-02-14T07:51:26;94013.88;;;5.26;62.21
10079;BME280;5078;42.544;22.966;2024-02-14T07:53:54;94024.34;;;5.42;62.28
10079;BME280;5078;42.544;22.966;2024-02-14T07:56:21;94027.09;;;5.35;62.67
10079;BME280;5078;42.544;22.966;2024-02-14T07:58:47;94032.59;;;5.65;61.76
10079;BME280;5078;42.544;22.966;2024-02-14T08:01:15;94033.00;;;5.84;61.88
10079;BME280;5078;42.544;22.966;2024-02-14T08:03:41;94030.78;;;5.44;62.77
10079;BME280;5078;42.544;22.966;2024-02-14T08:06:08;94035.31;;;5.59;62.52
10079;BME280;5078;42.544;22.966;2024-02-14T08:08:36;94028.84;;;5.78;62.10
10079;BME280;5078;42.544;22.966;2024-02-14T08:11:03;94037.28;;;5.73;62.63
10079;BME280;5078;42.544;22.966;2024-02-14T08:13:30;94033.03;;;6.06;60.84
10079;BME280;5078;42.544;22.966;2024-02-14T08:15:57;94031.72;;;6.35;60.29
10079;BME280;5078;42.544;22.966;2024-02-14T08:18:24;94037.34;;;6.64;59.04
10079;BME280;5078;42.544;22.966;2024-02-14T08:20:52;94041.44;;;6.60;59.24
10079;BME280;5078;42.544;22.966;2024-02-14T08:23:19;94034.44;;;6.87;57.43
10079;BME280;5078;42.544;22.966;2024-02-14T08:25:47;94040.06;;;6.84;57.21
10079;BME280;5078;42.544;22.966;2024-02-14T08:28:14;94030.81;;;6.88;57.47
10079;BME280;5078;42.544;22.966;2024-02-14T08:30:44;94045.56;;;6.98;57.73
10079;BME280;5078;42.544;22.966;2024-02-14T08:33:11;94045.09;;;7.06;56.92
10079;BME280;5078;42.544;22.966;2024-02-14T08:35:38;94037.69;;;6.77;57.26
10079;BME280;5078;42.544;22.966;2024-02-14T08:38:05;94052.13;;;6.78;58.64
10079;BME280;5078;42.544;22.966;2024-02-14T08:40:33;94047.09;;;6.94;57.47
10079;BME280;5078;42.544;22.966;2024-02-14T08:43:01;94051.13;;;6.79;59.46
10079;BME280;5078;42.544;22.966;2024-02-14T08:45:29;94043.41;;;6.84;60.75
10079;BME280;5078;42.544;22.966;2024-02-14T08:47:56;94053.94;;;6.78;61.16
10079;BME280;5078;42.544;22.966;2024-02-14T08:50:23;94049.66;;;6.94;61.27
10079;BME280;5078;42.544;22.966;2024-02-14T08:52:50;94048.72;;;7.10;59.59
10079;BME280;5078;42.544;22.966;2024-02-14T08:55:16;94052.16;;;7.25;61.66
10079;BME280;5078;42.544;22.966;2024-02-14T08:57:43;94048.63;;;7.42;59.74
10079;BME280;5078;42.544;22.966;2024-02-14T09:00:14;94054.38;;;6.65;61.79
10079;BME280;5078;42.544;22.966;2024-02-14T09:02:44;94044.19;;;7.27;60.67
10079;BME280;5078;42.544;22.966;2024-02-14T09:05:12;94050.69;;;7.45;58.72
10079;BME280;5078;42.544;22.966;2024-02-14T09:07:39;94049.69;;;7.51;57.21
10079;BME280;5078;42.544;22.966;2024-02-14T09:10:07;94063.63;;;7.55;59.19
10079;BME280;5078;42.544;22.966;2024-02-14T09:12:35;94065.69;;;7.53;59.00
10079;BME280;5078;42.544;22.966;2024-02-14T09:15:03;94065.31;;;7.24;57.54
10079;BME280;5078;42.544;22.966;2024-02-14T09:17:31;94066.97;;;6.61;60.25
10079;BME280;5078;42.544;22.966;2024-02-14T09:19:58;94076.50;;;6.34;60.39
10079;BME280;5078;42.544;22.966;2024-02-14T09:22:24;94058.88;;;5.94;62.07
10079;BME280;5078;42.544;22.966;2024-02-14T09:24:51;94082.03;;;5.94;62.24
10079;BME280;5078;42.544;22.966;2024-02-14T09:27:19;94073.28;;;5.73;63.90
10079;BME280;5078;42.544;22.966;2024-02-14T09:29:46;94080.56;;;6.03;61.64
10079;BME280;5078;42.544;22.966;2024-02-14T09:32:12;94076.53;;;5.64;63.78
10079;BME280;5078;42.544;22.966;2024-02-14T09:34:40;94097.28;;;5.35;66.24
10079;BME280;5078;42.544;22.966;2024-02-14T09:37:07;94095.91;;;5.11;67.74
10079;BME280;5078;42.544;22.966;2024-02-14T09:39:34;94096.63;;;5.28;67.23
10079;BME280;5078;42.544;22.966;2024-02-14T09:42:08;94097.47;;;5.12;67.03
10079;BME280;5078;42.544;22.966;2024-02-14T09:44:35;94103.69;;;5.16;67.36
10079;BME280;5078;42.544;22.966;2024-02-14T09:47:05;94090.94;;;5.05;67.34
10079;BME280;5078;42.544;22.966;2024-02-14T09:49:32;94093.75;;;5.42;66.54
10079;BME280;5078;42.544;22.966;2024-02-14T09:52:01;94087.69;;;5.31;64.64
10079;BME280;5078;42.544;22.966;2024-02-14T09:54:29;94089.50;;;5.52;62.68
10079;BME280;5078;42.544;22.966;2024-02-14T09:56:57;94072.75;;;5.28;64.07
10079;BME280;5078;42.544;22.966;2024-02-14T09:59:24;94078.25;;;5.58;61.96
10079;BME280;5078;42.544;22.966;2024-02-14T10:01:51;94075.03;;;5.46;62.07
10079;BME280;5078;42.544;22.966;2024-02-14T10:04:18;94080.47;;;5.71;61.63
10079;BME280;5078;42.544;22.966;2024-02-14T10:06:47;94087.47;;;5.76;60.96
10079;BME280;5078;42.544;22.966;2024-02-14T10:09:19;94081.47;;;5.70;61.69
10079;BME280;5078;42.544;22.966;2024-02-14T10:11:46;94087.00;;;5.35;61.84
10079;BME280;5078;42.544;22.966;2024-02-14T10:14:13;94087.88;;;5.24;62.31
10079;BME280;5078;42.544;22.966;2024-02-14T10:16:40;94076.50;;;5.20;61.78
10079;BME280;5078;42.544;22.966;2024-02-14T10:19:14;94089.78;;;4.96;60.75
10079;BME280;5078;42.544;22.966;2024-02-14T10:21:41;94096.16;;;5.10;62.38
10079;BME280;5078;42.544;22.966;2024-02-14T10:24:08;94081.91;;;5.40;60.39
10079;BME280;5078;42.544;22.966;2024-02-14T10:26:37;94090.88;;;5.38;58.90
10079;BME280;5078;42.544;22.966;2024-02-14T10:29:05;94095.03;;;5.22;59.69
10079;BME280;5078;42.544;22.966;2024-02-14T10:31:35;94078.81;;;5.38;58.23
10079;BME280;5078;42.544;22.966;2024-02-14T10:34:02;94092.16;;;5.57;57.69
10079;BME280;5078;42.544;22.966;2024-02-14T10:36:31;94091.19;;;5.25;59.45
10079;BME280;5078;42.544;22.966;2024-02-14T10:39:00;94089.81;;;5.56;57.94
10079;BME280;5078;42.544;22.966;2024-02-14T10:41:30;94073.59;;;5.33;57.46
10079;BME280;5078;42.544;22.966;2024-02-14T10:44:01;94079.03;;;5.37;58.76
10079;BME280;5078;42.544;22.966;2024-02-14T10:46:31;94084.06;;;5.49;59.27
10079;BME280;5078;42.544;22.966;2024-02-14T10:49:02;94089.84;;;5.82;56.69
10079;BME280;5078;42.544;22.966;2024-02-14T10:51:31;94086.41;;;5.72;58.23
10079;BME280;5078;42.544;22.966;2024-02-14T10:53:58;94085.47;;;5.39;59.05
10079;BME280;5078;42.544;22.966;2024-02-14T10:56:28;94072.81;;;5.33;58.46
10079;BME280;5078;42.544;22.966;2024-02-14T10:58:56;94082.16;;;5.61;57.97
10079;BME280;5078;42.544;22.966;2024-02-14T11:01:26;94084.75;;;5.44;58.55
10079;BME280;5078;42.544;22.966;2024-02-14T11:03:56;94082.75;;;5.46;58.92
10079;BME280;5078;42.544;22.966;2024-02-14T11:06:23;94081.25;;;5.72;58.63
10079;BME280;5078;42.544;22.966;2024-02-14T11:08:58;94078.38;;;5.68;58.24
10079;BME280;5078;42.544;22.966;2024-02-14T11:11:28;94088.25;;;5.76;58.86
10079;BME280;5078;42.544;22.966;2024-02-14T11:13:55;94083.53;;;5.47;58.99
10079;BME280;5078;42.544;22.966;2024-02-14T11:16:26;94078.91;;;5.70;58.75
10079;BME280;5078;42.544;22.966;2024-02-14T11:18:53;94089.09;;;5.38;59.57
10079;BME280;5078;42.544;22.966;2024-02-14T11:21:28;94082.16;;;5.61;58.46
10079;BME280;5078;42.544;22.966;2024-02-14T11:23:55;94081.13;;;5.40;58.72
10079;BME280;5078;42.544;22.966;2024-02-14T11:26:21;94080.69;;;5.70;58.97
10079;BME280;5078;42.544;22.966;2024-02-14T11:28:49;94074.72;;;6.08;58.15
10079;BME280;5078;42.544;22.966;2024-02-14T11:31:32;94072.38;;;6.06;57.19
10079;BME280;5078;42.544;22.966;2024-02-14T11:34:03;94069.81;;;5.84;57.43
10079;BME280;5078;42.544;22.966;2024-02-14T11:36:31;94081.66;;;6.07;57.26
10079;BME280;5078;42.544;22.966;2024-02-14T11:38:58;94077.31;;;5.64;58.30
10079;BME280;5078;42.544;22.966;2024-02-14T11:41:27;94067.72;;;5.81;57.24
10079;BME280;5078;42.544;22.966;2024-02-14T11:43:53;94084.59;;;5.72;56.97
10079;BME280;5078;42.544;22.966;2024-02-14T11:46:20;94081.47;;;5.87;55.84
10079;BME280;5078;42.544;22.966;2024-02-14T11:48:48;94080.09;;;5.84;55.67
10079;BME280;5078;42.544;22.966;2024-02-14T11:51:15;94083.84;;;5.94;56.04
10079;BME280;5078;42.544;22.966;2024-02-14T11:53:42;94085.41;;;5.95;55.46
10079;BME280;5078;42.544;22.966;2024-02-14T11:56:08;94063.16;;;6.10;54.83
10079;BME280;5078;42.544;22.966;2024-02-14T11:58:35;94074.78;;;6.13;53.96
10079;BME280;5078;42.544;22.966;2024-02-14T12:01:03;94075.28;;;5.88;56.29
10079;BME280;5078;42.544;22.966;2024-02-14T12:03:31;94078.44;;;5.73;56.78
10079;BME280;5078;42.544;22.966;2024-02-14T12:05:59;94083.16;;;6.03;55.62
10079;BME280;5078;42.544;22.966;2024-02-14T12:08:26;94067.50;;;6.10;56.37
10079;BME280;5078;42.544;22.966;2024-02-14T12:10:53;94080.69;;;6.13;55.58
10079;BME280;5078;42.544;22.966;2024-02-14T12:13:20;94073.28;;;6.17;56.52
10079;BME280;5078;42.544;22.966;2024-02-14T12:15:48;94077.56;;;6.11;54.63
10079;BME280;5078;42.544;22.966;2024-02-14T12:18:16;94076.66;;;6.22;55.51
10079;BME280;5078;42.544;22.966;2024-02-14T12:20:43;94076.16;;;5.99;55.50
10079;BME280;5078;42.544;22.966;2024-02-14T12:23:15;94084.63;;;5.94;55.28
10079;BME280;5078;42.544;22.966;2024-02-14T12:25:43;94081.09;;;6.27;54.51
10079;BME280;5078;42.544;22.966;2024-02-14T12:28:13;94071.00;;;5.77;55.77
10079;BME280;5078;42.544;22.966;2024-02-14T12:30:44;94069.34;;;6.09;53.88
10079;BME280;5078;42.544;22.966;2024-02-14T12:33:12;94068.50;;;6.04;54.04
10079;BME280;5078;42.544;22.966;2024-02-14T12:35:41;94078.78;;;5.82;54.59
10079;BME280;5078;42.544;22.966;2024-02-14T12:38:09;94070.97;;;5.94;55.91
10079;BME280;5078;42.544;22.966;2024-02-14T12:40:38;94068.13;;;5.73;54.92
10079;BME280;5078;42.544;22.966;2024-02-14T12:43:07;94069.22;;;5.99;54.28
10079;BME280;5078;42.544;22.966;2024-02-14T12:45:34;94067.06;;;6.13;54.14
10079;BME280;5078;42.544;22.966;2024-02-14T12:48:00;94075.09;;;6.21;52.64
10079;BME280;5078;42.544;22.966;2024-02-14T12:50:27;94064.94;;;6.10;52.97
10079;BME280;5078;42.544;22.966;2024-02-14T12:52:54;94071.59;;;5.84;53.69
10079;BME280;5078;42.544;22.966;2024-02-14T12:55:21;94061.69;;;5.71;54.25
10079;BME280;5078;42.544;22.966;2024-02-14T12:57:50;94064.38;;;5.81;54.24
10079;BME280;5078;42.544;22.966;2024-02-14T13:00:17;94066.75;;;5.66;54.45
10079;BME280;5078;42.544;22.966;2024-02-14T13:02:44;94067.44;;;5.78;55.19
10079;BME280;5078;42.544;22.966;2024-02-14T13:05:10;94069.03;;;5.84;54.22
10079;BME280;5078;42.544;22.966;2024-02-14T13:07:37;94076.94;;;5.99;54.00
10079;BME280;5078;42.544;22.966;2024-02-14T13:10:05;94074.84;;;5.96;52.88